Time;durP1;ratioP1;P1;durP2;ratioP2;P2;SDS_P1;SDS_P2;PMS_P1;PMS_P2;Temp;Humidity;BMP_temperature;BMP_pressure;BME280_temperature;BME280_humidity;BME280_pressure;Samples;Min_cycle;Max_cycle;Signal;HPM_P1;HPM_P2
2023/03/22 00:00:51;;;;;;;13.88;7.90;;;10.10;99.90;;;;;;5053176;28;20032;-79
2023/03/22 00:03:18;;;;;;;15.10;8.20;;;9.90;99.90;;;;;;5082577;28;20104;-79
2023/03/22 00:05:44;;;;;;;12.40;7.75;;;11.00;99.90;;;;;;5078860;28;20039;-78
2023/03/22 00:08:12;;;;;;;14.18;8.25;;;11.00;99.90;;;;;;5092112;28;20131;-78
2023/03/22 00:10:41;;;;;;;17.48;7.95;;;9.90;99.90;;;;;;5089067;28;20056;-78
2023/03/22 00:13:10;;;;;;;18.95;7.15;;;10.00;99.90;;;;;;5076586;28;20379;-78
2023/03/22 00:15:36;;;;;;;17.17;7.18;;;9.80;99.90;;;;;;5059028;28;20399;-78
2023/03/22 00:18:04;;;;;;;14.32;6.90;;;9.70;99.90;;;;;;5093681;28;20039;-78
2023/03/22 00:20:32;;;;;;;11.98;5.47;;;9.80;99.90;;;;;;5090945;28;20036;-80
2023/03/22 00:22:59;;;;;;;16.05;6.38;;;9.80;99.90;;;;;;5099444;28;20047;-79
2023/03/22 00:25:25;;;;;;;13.82;5.85;;;9.70;99.90;;;;;;5062634;28;20047;-79
2023/03/22 00:27:51;;;;;;;13.63;6.03;;;9.70;99.90;;;;;;5085894;28;20036;-79
2023/03/22 00:30:17;;;;;;;10.45;5.22;;;9.70;99.90;;;;;;5090136;28;20040;-79
2023/03/22 00:32:42;;;;;;;9.70;5.13;;;9.70;99.90;;;;;;5074074;28;20028;-79
2023/03/22 00:35:09;;;;;;;13.43;6.45;;;9.70;99.90;;;;;;5069082;28;20048;-79
2023/03/22 00:37:37;;;;;;;12.77;5.90;;;9.60;99.90;;;;;;5072927;28;20047;-79
2023/03/22 00:40:13;;;;;;;14.88;5.50;;;10.30;99.90;;;;;;5089066;28;20050;-78
2023/03/22 00:42:41;;;;;;;14.27;5.35;;;9.60;99.90;;;;;;5056532;28;20395;-78
2023/03/22 00:45:09;;;;;;;12.68;6.35;;;9.60;99.90;;;;;;5071613;28;20459;-79
2023/03/22 00:47:37;;;;;;;17.15;5.60;;;9.60;99.90;;;;;;5081037;28;20058;-79
2023/03/22 00:50:05;;;;;;;11.63;5.85;;;9.60;99.90;;;;;;5096034;28;20038;-79
2023/03/22 00:52:32;;;;;;;15.88;5.75;;;9.60;99.90;;;;;;5092144;28;20032;-79
2023/03/22 00:54:58;;;;;;;12.77;5.95;;;9.60;99.90;;;;;;5072616;28;20054;-78
2023/03/22 00:57:23;;;;;;;16.17;6.47;;;9.60;99.90;;;;;;5084885;28;20036;-79
2023/03/22 00:59:49;;;;;;;13.27;5.70;;;9.60;99.90;;;;;;5086922;28;20031;-79
2023/03/22 01:02:16;;;;;;;17.40;5.88;;;9.50;99.90;;;;;;5067788;28;20169;-79
2023/03/22 01:04:47;;;;;;;13.68;5.80;;;10.00;99.90;;;;;;5073355;28;20043;-79
2023/03/22 01:07:16;;;;;;;14.32;5.95;;;9.60;99.90;;;;;;5072560;28;20028;-79
2023/03/22 01:09:43;;;;;;;11.52;5.30;;;9.60;99.90;;;;;;5076013;28;20040;-79
2023/03/22 01:12:10;;;;;;;9.65;4.88;;;9.60;99.90;;;;;;5060837;28;20044;-79
2023/03/22 01:14:37;;;;;;;12.20;4.97;;;9.60;99.90;;;;;;5075661;28;20131;-79
2023/03/22 01:17:03;;;;;;;16.42;5.35;;;9.70;99.90;;;;;;5092086;28;20029;-79
2023/03/22 01:19:29;;;;;;;15.40;4.88;;;10.20;99.90;;;;;;5087049;28;20038;-79
2023/03/22 01:21:56;;;;;;;11.63;5.10;;;9.60;99.90;;;;;;5071127;28;20468;-79
2023/03/22 01:24:23;;;;;;;9.27;4.22;;;9.60;99.90;;;;;;5069398;28;20036;-79
2023/03/22 01:26:49;;;;;;;9.43;4.47;;;9.70;99.90;;;;;;5090997;28;20039;-79
2023/03/22 01:29:15;;;;;;;10.38;4.72;;;9.60;99.90;;;;;;5081051;28;20043;-79
2023/03/22 01:31:42;;;;;;;11.57;5.00;;;9.70;99.90;;;;;;5051928;28;20089;-79
2023/03/22 01:34:08;;;;;;;8.85;4.45;;;9.70;99.90;;;;;;5091540;28;20047;-79
2023/03/22 01:36:35;;;;;;;8.98;4.55;;;10.20;99.90;;;;;;5056974;28;20036;-79
2023/03/22 01:39:01;;;;;;;9.63;4.07;;;9.60;99.90;;;;;;5078208;28;20052;-79
2023/03/22 01:41:28;;;;;;;13.90;4.60;;;9.70;99.90;;;;;;5072435;28;20032;-79
2023/03/22 01:44:12;;;;;;;12.88;4.78;;;10.20;99.90;;;;;;5066763;28;20040;-79
2023/03/22 01:46:42;;;;;;;14.15;4.50;;;10.50;99.90;;;;;;5099236;28;20109;-79
2023/03/22 01:49:24;;;;;;;15.02;4.35;;;9.70;99.90;;;;;;5071609;28;20472;-78
2023/03/22 01:51:54;;;;;;;11.85;4.85;;;9.60;99.90;;;;;;5067117;28;20036;-79
2023/03/22 01:54:30;;;;;;;11.73;4.47;;;9.70;99.90;;;;;;5088668;28;20135;-78
2023/03/22 01:56:57;;;;;;;13.02;4.43;;;9.70;99.90;;;;;;5091656;28;20059;-78
2023/03/22 01:59:23;;;;;;;12.25;4.22;;;9.90;99.90;;;;;;5063734;28;20488;-79
2023/03/22 02:01:49;;;;;;;11.70;4.00;;;9.70;99.90;;;;;;5065959;28;20047;-78
2023/03/22 02:04:22;;;;;;;14.10;3.90;;;9.70;99.90;;;;;;5078308;28;20059;-79
2023/03/22 02:06:50;;;;;;;13.10;4.45;;;11.00;99.90;;;;;;5072006;28;20522;-79
2023/03/22 02:09:17;;;;;;;11.98;3.90;;;9.70;99.90;;;;;;5077022;28;20825;-78
2023/03/22 02:11:49;;;;;;;13.75;4.25;;;9.70;99.90;;;;;;5064896;28;20036;-79
2023/03/22 02:14:26;;;;;;;12.68;3.78;;;9.70;99.90;;;;;;5070760;28;20119;-78
2023/03/22 02:17:06;;;;;;;8.98;3.60;;;9.50;99.90;;;;;;5058538;28;20143;-78
2023/03/22 02:20:07;;;;;;;12.90;3.95;;;9.70;99.90;;;;;;5080811;28;20044;-78
2023/03/22 02:22:45;;;;;;;14.18;3.92;;;9.70;99.90;;;;;;5065346;28;20032;-78
2023/03/22 02:25:33;;;;;;;13.63;3.92;;;9.70;99.90;;;;;;5089272;28;20503;-79
2023/03/22 02:28:01;;;;;;;12.15;3.72;;;9.70;99.90;;;;;;5069383;28;20058;-78
2023/03/22 02:30:56;;;;;;;11.35;3.58;;;9.60;99.90;;;;;;5060348;28;20040;-78
2023/03/22 02:33:55;;;;;;;15.48;3.90;;;9.70;99.90;;;;;;5066056;28;20132;-79
2023/03/22 02:36:46;;;;;;;11.93;3.90;;;9.70;99.90;;;;;;5046449;28;20093;-78
2023/03/22 02:39:27;;;;;;;8.38;3.42;;;9.70;99.90;;;;;;5032355;28;20044;-79
2023/03/22 02:41:55;;;;;;;10.13;3.83;;;9.70;99.90;;;;;;5074936;28;20123;-78
2023/03/22 02:44:41;;;;;;;10.35;3.50;;;9.60;99.90;;;;;;5088201;28;20039;-78
2023/03/22 02:47:15;;;;;;;9.35;3.50;;;9.70;99.90;;;;;;5090705;28;20036;-78
2023/03/22 02:49:51;;;;;;;11.95;3.67;;;9.60;99.90;;;;;;5077553;28;20084;-78
2023/03/22 02:52:35;;;;;;;9.10;3.95;;;9.60;99.90;;;;;;5093744;28;20423;-78
2023/03/22 02:55:06;;;;;;;12.02;3.42;;;9.70;99.90;;;;;;5093402;28;20408;-78
2023/03/22 02:57:56;;;;;;;11.15;3.28;;;9.70;99.90;;;;;;5073655;28;20044;-79
2023/03/22 03:00:24;;;;;;;17.98;4.68;;;9.70;99.90;;;;;;5096380;28;20532;-79
2023/03/22 03:02:58;;;;;;;9.82;3.55;;;9.70;99.90;;;;;;5087861;28;20539;-79
2023/03/22 03:05:27;;;;;;;11.20;3.42;;;9.70;99.90;;;;;;5069201;28;20048;-79
2023/03/22 03:07:59;;;;;;;13.75;3.17;;;9.60;99.90;;;;;;5088210;28;20032;-79
2023/03/22 03:10:25;;;;;;;;;;;10.70;99.90;;;;;;5085496;28;20051;-79
2023/03/22 03:12:51;;;;;;;11.20;3.25;;;9.50;99.90;;;;;;5081227;28;19959;-79
2023/03/22 03:15:19;;;;;;;9.52;3.38;;;10.30;99.90;;;;;;5098710;28;20585;-79
2023/03/22 03:17:47;;;;;;;11.77;3.20;;;9.60;99.90;;;;;;5071445;28;20114;-79
2023/03/22 03:20:29;;;;;;;14.68;3.33;;;9.60;99.90;;;;;;5088846;28;20043;-79
2023/03/22 03:23:34;;;;;;;12.90;3.13;;;9.60;99.90;;;;;;5075227;28;20050;-79
2023/03/22 03:26:12;;;;;;;10.25;3.00;;;9.40;99.90;;;;;;5082667;28;20039;-79
2023/03/22 03:28:56;;;;;;;9.57;2.92;;;9.60;99.90;;;;;;5089250;28;20433;-79
2023/03/22 03:31:33;;;;;;;8.45;2.80;;;8.90;99.90;;;;;;5105386;28;20039;-79
2023/03/22 03:34:08;;;;;;;8.70;3.35;;;9.70;99.90;;;;;;5083114;28;20028;-79
2023/03/22 03:36:38;;;;;;;7.65;2.42;;;9.70;99.90;;;;;;5059309;28;20531;-79
2023/03/22 03:39:08;;;;;;;10.32;3.15;;;9.50;99.90;;;;;;5096338;28;20044;-79
2023/03/22 03:41:35;;;;;;;7.97;3.05;;;9.30;99.90;;;;;;5096603;28;20494;-79
2023/03/22 03:44:02;;;;;;;10.90;3.25;;;9.70;99.90;;;;;;5105406;28;20055;-79
2023/03/22 03:46:28;;;;;;;8.20;3.20;;;9.70;99.90;;;;;;5067771;28;20044;-79
2023/03/22 03:48:56;;;;;;;13.55;3.70;;;9.70;99.90;;;;;;5081312;28;20517;-79
2023/03/22 03:51:22;;;;;;;8.27;3.88;;;9.70;99.90;;;;;;5077473;28;20551;-79
2023/03/22 03:53:48;;;;;;;10.35;3.92;;;9.60;99.90;;;;;;5094510;28;20115;-79
2023/03/22 03:56:14;;;;;;;10.57;4.30;;;11.00;99.90;;;;;;5094044;28;20040;-79
2023/03/22 03:58:40;;;;;;;12.50;5.05;;;10.20;99.90;;;;;;5054593;28;20040;-79
2023/03/22 04:01:05;;;;;;;10.15;4.93;;;9.70;99.90;;;;;;5091315;28;20043;-79
2023/03/22 04:03:31;;;;;;;12.15;5.68;;;9.70;99.90;;;;;;5081891;28;20345;-79
2023/03/22 04:05:58;;;;;;;13.90;6.20;;;9.70;99.90;;;;;;5050618;28;20126;-79
2023/03/22 04:08:24;;;;;;;16.80;7.00;;;9.80;99.90;;;;;;5091261;28;20041;-79
2023/03/22 04:10:50;;;;;;;14.82;6.63;;;9.60;99.90;;;;;;5079294;28;20044;-79
2023/03/22 04:13:20;;;;;;;11.85;6.72;;;9.80;99.90;;;;;;5067124;28;20131;-79
2023/03/22 04:15:46;;;;;;;14.23;7.32;;;9.70;99.90;;;;;;5093114;28;20032;-79
2023/03/22 04:18:11;;;;;;;14.63;6.88;;;9.70;99.90;;;;;;5086199;28;20035;-79
2023/03/22 04:20:40;;;;;;;18.13;8.40;;;9.80;99.90;;;;;;5063930;28;20039;-78
2023/03/22 04:23:09;;;;;;;19.23;9.20;;;9.80;99.90;;;;;;5075921;28;20047;-79
2023/03/22 04:25:36;;;;;;;19.08;9.30;;;9.90;99.90;;;;;;5081203;28;20051;-79
2023/03/22 04:28:03;;;;;;;17.65;8.88;;;10.60;99.90;;;;;;5059241;28;20505;-79
2023/03/22 04:30:34;;;;;;;18.80;9.27;;;9.90;99.90;;;;;;5073520;28;20039;-79
2023/03/22 04:33:05;;;;;;;19.65;9.23;;;9.80;99.90;;;;;;5089441;28;20118;-79
2023/03/22 04:35:32;;;;;;;17.48;10.27;;;9.80;99.90;;;;;;5079506;28;20100;-79
2023/03/22 04:38:00;;;;;;;16.60;9.48;;;9.90;99.90;;;;;;5087597;28;20043;-79
2023/03/22 04:40:27;;;;;;;16.35;10.10;;;9.80;99.90;;;;;;5096245;28;20090;-79
2023/03/22 04:42:56;;;;;;;20.17;10.68;;;9.80;99.90;;;;;;5083879;28;20036;-79
2023/03/22 04:45:22;;;;;;;18.63;10.38;;;9.80;99.90;;;;;;5093913;28;20043;-79
2023/03/22 04:47:48;;;;;;;16.67;10.32;;;10.30;99.90;;;;;;5092928;28;20097;-78
2023/03/22 04:50:13;;;;;;;16.20;10.35;;;9.80;99.90;;;;;;5093438;28;20458;-78
2023/03/22 04:52:40;;;;;;;20.67;11.05;;;10.10;99.90;;;;;;5094025;28;20040;-78
2023/03/22 04:55:06;;;;;;;18.38;10.60;;;9.80;99.90;;;;;;5082896;28;20048;-78
2023/03/22 04:57:34;;;;;;;19.35;11.25;;;9.90;99.90;;;;;;5062625;28;20039;-79
2023/03/22 04:59:59;;;;;;;16.85;11.13;;;9.80;99.90;;;;;;5069874;28;20036;-79
2023/03/22 05:02:28;;;;;;;18.02;10.88;;;9.70;99.90;;;;;;5071584;28;20028;-78
2023/03/22 05:04:54;;;;;;;17.58;11.43;;;9.90;99.90;;;;;;5071331;28;20518;-79
2023/03/22 05:07:20;;;;;;;20.90;11.77;;;9.80;99.90;;;;;;5070894;28;20040;-78
2023/03/22 05:09:45;;;;;;;18.42;11.23;;;9.70;99.90;;;;;;5075692;28;20044;-78
2023/03/22 05:12:11;;;;;;;20.67;11.43;;;9.80;99.90;;;;;;5065573;28;20036;-79
2023/03/22 05:14:36;;;;;;;26.00;12.73;;;10.90;99.90;;;;;;5071555;28;20423;-79
2023/03/22 05:17:02;;;;;;;19.65;12.00;;;9.80;99.90;;;;;;5084035;28;20044;-79
2023/03/22 05:19:28;;;;;;;19.52;11.95;;;8.80;99.90;;;;;;5079676;28;20461;-79
2023/03/22 05:21:56;;;;;;;21.33;12.43;;;9.80;99.90;;;;;;5077745;28;20047;-78
2023/03/22 05:24:22;;;;;;;23.42;12.35;;;10.60;99.90;;;;;;5071648;28;20036;-78
2023/03/22 05:26:52;;;;;;;19.83;12.43;;;10.50;99.90;;;;;;5049838;28;20039;-77
2023/03/22 05:29:20;;;;;;;23.10;11.95;;;9.70;99.90;;;;;;5072592;28;20054;-78
2023/03/22 05:31:45;;;;;;;22.77;12.63;;;10.60;99.90;;;;;;5077654;28;20103;-77
2023/03/22 05:34:12;;;;;;;21.15;12.27;;;9.70;99.90;;;;;;5089545;28;20158;-76
2023/03/22 05:36:38;;;;;;;19.15;11.60;;;9.80;99.90;;;;;;5053081;28;20067;-76
2023/03/22 05:39:04;;;;;;;19.45;11.63;;;9.70;99.90;;;;;;5081404;28;20495;-76
2023/03/22 05:41:32;;;;;;;18.95;12.13;;;9.80;99.90;;;;;;5080610;28;20439;-77
2023/03/22 05:44:00;;;;;;;18.67;11.23;;;9.80;99.90;;;;;;5080072;28;20492;-77
2023/03/22 05:46:27;;;;;;;21.02;11.98;;;10.50;99.90;;;;;;5067808;28;20036;-77
2023/03/22 05:48:53;;;;;;;20.00;11.48;;;9.80;99.90;;;;;;5084312;28;20561;-77
2023/03/22 05:51:19;;;;;;;24.40;12.50;;;9.70;99.90;;;;;;5047297;28;20032;-77
2023/03/22 05:53:46;;;;;;;17.90;11.85;;;9.80;99.90;;;;;;5083366;28;20066;-77
2023/03/22 05:56:14;;;;;;;22.00;11.45;;;10.20;99.90;;;;;;5071256;28;20094;-77
2023/03/22 05:58:41;;;;;;;20.77;11.77;;;9.80;99.90;;;;;;5085111;28;20040;-77
2023/03/22 06:01:15;;;;;;;19.77;10.90;;;9.70;99.90;;;;;;5074086;28;20480;-78
2023/03/22 06:03:41;;;;;;;19.65;11.15;;;9.80;99.90;;;;;;5065166;28;20036;-77
2023/03/22 06:06:09;;;;;;;20.65;11.43;;;9.80;99.90;;;;;;5071564;28;20040;-77
2023/03/22 06:08:38;;;;;;;19.00;10.27;;;9.80;99.90;;;;;;5089603;28;20060;-78
2023/03/22 06:11:07;;;;;;;19.10;10.80;;;9.90;99.90;;;;;;5075250;28;20108;-78
2023/03/22 06:13:32;;;;;;;19.52;10.82;;;11.10;99.90;;;;;;5055466;28;20544;-77
2023/03/22 06:16:00;;;;;;;17.48;10.25;;;9.80;99.90;;;;;;5069077;28;20039;-78
2023/03/22 06:18:48;;;;;;;19.45;10.98;;;9.90;99.90;;;;;;5080784;28;20040;-78
2023/03/22 06:21:16;;;;;;;16.98;9.68;;;9.90;99.90;;;;;;5070354;28;20046;-78
2023/03/22 06:23:42;;;;;;;17.38;10.57;;;9.90;99.90;;;;;;5088936;28;20036;-78
2023/03/22 06:26:10;;;;;;;16.90;9.18;;;10.40;99.90;;;;;;5089077;28;20061;-78
2023/03/22 06:28:36;;;;;;;20.63;10.65;;;10.20;99.90;;;;;;5054023;28;20139;-78
2023/03/22 06:31:08;;;;;;;16.25;10.18;;;9.90;99.90;;;;;;5064898;28;20048;-78
2023/03/22 06:33:35;;;;;;;17.00;9.63;;;10.00;99.90;;;;;;5077941;28;20095;-78
2023/03/22 06:36:03;;;;;;;15.60;9.52;;;10.00;99.90;;;;;;5066277;28;20052;-78
2023/03/22 06:38:29;;;;;;;17.48;9.10;;;10.00;99.90;;;;;;5080372;28;20373;-78
2023/03/22 06:40:55;;;;;;;16.92;8.55;;;10.00;99.90;;;;;;5072842;28;20036;-78
2023/03/22 06:43:20;;;;;;;18.25;9.48;;;10.20;99.90;;;;;;5068270;28;20100;-79
2023/03/22 06:45:47;;;;;;;15.75;8.90;;;10.20;99.90;;;;;;5089431;28;20368;-78
2023/03/22 06:48:13;;;;;;;15.95;8.45;;;10.20;99.90;;;;;;5079046;28;20119;-78
2023/03/22 06:50:40;;;;;;;16.48;8.30;;;10.20;99.90;;;;;;5083548;28;20076;-78
2023/03/22 06:53:06;;;;;;;18.05;8.18;;;10.30;99.90;;;;;;5075344;28;20044;-78
2023/03/22 06:55:33;;;;;;;14.32;7.93;;;10.40;99.90;;;;;;5055867;28;20036;-79
2023/03/22 06:58:00;;;;;;;14.68;8.27;;;11.10;99.90;;;;;;5059049;28;20109;-79
2023/03/22 07:00:26;;;;;;;14.98;7.72;;;10.40;99.90;;;;;;5103347;28;20040;-79
2023/03/22 07:02:52;;;;;;;14.80;7.78;;;10.40;99.90;;;;;;5086546;28;20036;-77
2023/03/22 07:05:18;;;;;;;14.68;7.53;;;10.60;99.90;;;;;;5093976;28;20384;-80
2023/03/22 07:07:44;;;;;;;14.25;7.65;;;10.60;99.90;;;;;;5055068;28;20570;-77
2023/03/22 07:10:11;;;;;;;14.15;7.07;;;10.60;99.90;;;;;;5076926;28;20047;-77
2023/03/22 07:12:36;;;;;;;13.38;6.75;;;11.00;99.90;;;;;;5066287;28;20040;-78
2023/03/22 07:15:02;;;;;;;15.45;7.30;;;11.40;99.90;;;;;;5070719;28;20040;-77
2023/03/22 07:17:28;;;;;;;15.00;6.88;;;10.70;99.90;;;;;;5099227;28;20123;-77
2023/03/22 07:19:53;;;;;;;15.38;6.80;;;10.60;99.90;;;;;;5054160;28;20124;-77
2023/03/22 07:22:21;;;;;;;11.10;6.40;;;10.60;99.90;;;;;;5072626;28;20040;-77
2023/03/22 07:24:48;;;;;;;11.20;6.60;;;11.00;99.90;;;;;;5055549;28;20127;-77
2023/03/22 07:27:13;;;;;;;13.73;6.68;;;11.10;99.90;;;;;;5077588;28;20039;-77
2023/03/22 07:29:40;;;;;;;12.75;6.35;;;10.70;99.90;;;;;;5080098;28;20043;-77
2023/03/22 07:32:05;;;;;;;11.55;5.80;;;11.70;99.90;;;;;;5083409;28;20120;-77
2023/03/22 07:34:31;;;;;;;12.43;6.18;;;11.60;99.90;;;;;;5092206;28;20488;-77
2023/03/22 07:36:57;;;;;;;10.55;5.43;;;10.80;99.90;;;;;;5094533;28;20036;-77
2023/03/22 07:39:23;;;;;;;11.65;6.30;;;11.90;99.90;;;;;;5078480;28;20113;-77
2023/03/22 07:41:49;;;;;;;8.57;5.25;;;10.90;99.90;;;;;;5084186;28;20051;-77
2023/03/22 07:44:17;;;;;;;12.10;5.78;;;10.90;99.90;;;;;;5076808;28;20123;-77
2023/03/22 07:46:44;;;;;;;12.25;5.68;;;10.80;99.90;;;;;;5062203;28;20035;-78
2023/03/22 07:49:09;;;;;;;10.85;5.18;;;10.90;99.90;;;;;;5079095;28;20040;-78
2023/03/22 07:51:35;;;;;;;14.43;5.57;;;12.00;99.90;;;;;;5104800;28;20036;-78
2023/03/22 07:54:02;;;;;;;9.90;4.93;;;10.90;99.90;;;;;;5062492;28;20039;-78
2023/03/22 07:56:27;;;;;;;10.80;5.40;;;10.90;99.90;;;;;;5050372;28;20028;-76
2023/03/22 07:58:53;;;;;;;11.88;5.63;;;10.90;99.90;;;;;;5091751;28;20489;-78
2023/03/22 08:01:20;;;;;;;10.30;5.07;;;10.90;99.90;;;;;;5059714;28;20036;-77
2023/03/22 08:03:46;;;;;;;12.90;4.97;;;10.90;99.90;;;;;;5066580;28;20028;-77
2023/03/22 08:06:12;;;;;;;8.27;4.72;;;10.90;99.90;;;;;;5073776;28;20043;-77
2023/03/22 08:08:38;;;;;;;10.23;4.88;;;10.90;99.90;;;;;;5089601;28;20032;-77
2023/03/22 08:11:05;;;;;;;14.18;4.82;;;10.80;99.90;;;;;;5058757;28;20076;-77
2023/03/22 08:13:32;;;;;;;8.40;4.40;;;10.90;99.90;;;;;;5074276;28;20423;-76
2023/03/22 08:15:57;;;;;;;15.13;5.05;;;10.90;99.90;;;;;;5098487;28;20046;-78
2023/03/22 08:18:23;;;;;;;11.60;4.68;;;12.00;99.90;;;;;;5062537;28;20456;-78
2023/03/22 08:20:55;;;;;;;10.27;4.72;;;11.00;99.90;;;;;;5077469;28;20043;-78
2023/03/22 08:23:21;;;;;;;11.18;5.05;;;11.60;99.90;;;;;;5061363;28;20086;-79
2023/03/22 08:25:48;;;;;;;14.05;4.47;;;11.50;99.90;;;;;;5069067;28;20031;-79
2023/03/22 08:28:14;;;;;;;12.35;4.65;;;11.30;99.90;;;;;;5044833;28;20052;-78
2023/03/22 08:30:47;;;;;;;9.88;4.90;;;10.90;99.90;;;;;;5068169;28;20067;-78
2023/03/22 08:33:14;;;;;;;12.15;4.93;;;11.00;99.90;;;;;;5078601;28;20121;-79
2023/03/22 08:35:40;;;;;;;13.07;4.85;;;11.00;99.90;;;;;;5093449;28;20043;-79
2023/03/22 08:38:06;;;;;;;14.60;5.32;;;11.70;99.90;;;;;;5092978;28;20513;-79
2023/03/22 08:40:32;;;;;;;14.48;4.97;;;10.80;99.90;;;;;;5060586;28;20036;-79
2023/03/22 08:42:58;;;;;;;10.20;4.18;;;11.30;99.90;;;;;;5071612;28;20043;-79
2023/03/22 08:45:24;;;;;;;12.52;4.90;;;12.30;99.90;;;;;;5088553;28;20040;-79
2023/03/22 08:47:50;;;;;;;10.95;4.28;;;11.00;99.90;;;;;;5086518;28;20381;-78
2023/03/22 08:50:16;;;;;;;14.55;4.30;;;11.00;99.90;;;;;;5066925;28;20036;-79
2023/03/22 08:52:41;;;;;;;11.07;4.63;;;11.20;99.90;;;;;;5080827;28;20040;-78
2023/03/22 08:55:08;;;;;;;13.18;5.25;;;12.00;99.90;;;;;;5067621;28;20522;-79
2023/03/22 08:57:34;;;;;;;14.35;4.50;;;11.40;99.90;;;;;;5074618;28;20047;-79
2023/03/22 09:00:00;;;;;;;11.20;4.00;;;11.50;99.90;;;;;;5067030;28;20039;-79
2023/03/22 09:02:26;;;;;;;14.30;4.32;;;11.60;99.90;;;;;;5076626;28;20040;-79
2023/03/22 09:04:52;;;;;;;14.07;4.20;;;11.50;99.90;;;;;;5089659;28;20042;-79
2023/03/22 09:07:23;;;;;;;12.27;4.55;;;12.30;99.90;;;;;;5088087;28;20036;-80
2023/03/22 09:09:49;;;;;;;9.25;3.70;;;11.60;99.90;;;;;;5089573;28;20506;-79
2023/03/22 09:12:15;;;;;;;9.68;3.72;;;11.60;99.90;;;;;;5085847;28;20523;-79
2023/03/22 09:14:41;;;;;;;12.27;4.13;;;12.30;99.90;;;;;;5068923;28;20035;-79
2023/03/22 09:17:07;;;;;;;11.38;4.00;;;12.60;99.90;;;;;;5095686;28;20040;-79
2023/03/22 09:19:35;;;;;;;8.93;3.72;;;11.50;99.90;;;;;;5077812;28;20331;-78
2023/03/22 09:22:01;;;;;;;13.68;3.60;;;11.50;99.90;;;;;;5071237;28;20039;-79
2023/03/22 09:24:27;;;;;;;15.82;3.75;;;12.10;99.90;;;;;;5068120;28;20507;-79
2023/03/22 09:26:52;;;;;;;11.20;3.55;;;11.60;99.90;;;;;;5052499;28;20051;-79
2023/03/22 09:29:18;;;;;;;13.07;4.20;;;11.60;99.90;;;;;;5094458;28;20040;-79
2023/03/22 09:31:47;;;;;;;10.32;3.95;;;11.60;99.90;;;;;;5087327;28;20036;-79
2023/03/22 09:34:13;;;;;;;13.00;3.47;;;12.00;99.90;;;;;;5077038;28;20381;-79
2023/03/22 09:36:39;;;;;;;13.60;4.03;;;12.50;99.90;;;;;;5069360;28;20145;-79
2023/03/22 09:39:06;;;;;;;12.20;4.00;;;11.60;99.90;;;;;;5086268;28;20044;-79
2023/03/22 09:41:34;;;;;;;12.35;3.83;;;12.20;99.90;;;;;;5083297;28;20161;-79
2023/03/22 09:44:04;;;;;;;12.20;3.35;;;11.60;99.90;;;;;;5051721;28;20527;-79
2023/03/22 09:46:35;;;;;;;11.07;3.30;;;11.50;99.90;;;;;;5095376;28;20043;-80
2023/03/22 09:49:05;;;;;;;15.27;4.25;;;11.50;99.90;;;;;;5075981;28;20848;-78
2023/03/22 09:51:46;;;;;;;11.70;3.72;;;11.50;99.90;;;;;;5079145;28;20365;-78
2023/03/22 09:54:29;;;;;;;9.30;3.65;;;12.80;99.90;;;;;;5074890;28;20499;-78
2023/03/22 09:56:59;;;;;;;12.88;4.15;;;11.50;99.90;;;;;;5089340;28;20036;-77
2023/03/22 09:59:41;;;;;;;9.77;3.45;;;11.40;99.90;;;;;;5092592;28;20553;-78
2023/03/22 10:02:18;;;;;;;;;;;11.40;99.90;;;;;;5081708;28;20043;-79
2023/03/22 10:04:56;;;;;;;12.38;3.17;;;11.30;99.90;;;;;;5071281;28;20375;-79
2023/03/22 10:07:57;;;;;;;10.88;3.40;;;11.90;99.90;;;;;;5078687;28;20547;-79
2023/03/22 10:10:24;;;;;;;10.80;3.17;;;11.40;99.90;;;;;;5061408;28;20067;-78
2023/03/22 10:12:52;;;;;;;11.10;3.33;;;11.60;99.90;;;;;;5066751;28;20032;-80
2023/03/22 10:15:25;;;;;;;10.43;3.50;;;11.40;99.90;;;;;;5094334;28;20047;-79
2023/03/22 10:17:54;;;;;;;11.20;3.55;;;11.30;99.90;;;;;;5076506;28;20036;-78
2023/03/22 10:20:38;;;;;;;9.70;3.40;;;11.40;99.90;;;;;;5088822;28;20425;-79
2023/03/22 10:23:08;;;;;;;12.40;3.80;;;11.30;99.90;;;;;;5050792;28;20064;-79
2023/03/22 10:25:38;;;;;;;12.80;3.60;;;11.80;99.90;;;;;;5052837;28;20097;-79
2023/03/22 10:28:15;;;;;;;10.13;3.50;;;12.30;99.90;;;;;;5055552;28;20054;-79
2023/03/22 10:30:44;;;;;;;9.02;3.55;;;11.30;99.90;;;;;;5065710;28;20040;-80
2023/03/22 10:33:27;;;;;;;10.85;3.33;;;11.40;99.90;;;;;;5052208;28;20124;-78
2023/03/22 10:35:53;;;;;;;8.65;3.55;;;11.40;99.90;;;;;;5084014;28;20047;-79
2023/03/22 10:38:27;;;;;;;10.80;3.22;;;12.70;99.90;;;;;;5060520;28;20050;-78
2023/03/22 10:40:57;;;;;;;9.43;3.30;;;11.40;99.90;;;;;;5087374;28;20059;-78
2023/03/22 10:43:38;;;;;;;8.70;3.17;;;12.50;99.90;;;;;;5086532;28;20028;-78
2023/03/22 10:46:08;;;;;;;10.90;3.17;;;11.40;99.90;;;;;;5081756;28;20040;-78
2023/03/22 10:48:42;;;;;;;10.52;3.40;;;11.40;99.90;;;;;;5068951;28;20843;-77
2023/03/22 10:51:15;;;;;;;9.95;3.45;;;11.40;99.90;;;;;;5066253;28;20104;-77
2023/03/22 10:53:46;;;;;;;7.32;2.78;;;12.20;99.90;;;;;;5050874;28;20036;-77
2023/03/22 10:56:14;;;;;;;7.45;2.70;;;12.00;99.90;;;;;;5084156;28;20054;-77
2023/03/22 10:58:42;;;;;;;8.40;2.85;;;11.30;99.90;;;;;;5080652;28;20517;-77
2023/03/22 11:01:13;;;;;;;11.50;3.17;;;11.30;99.90;;;;;;5059004;28;20434;-77
2023/03/22 11:03:50;;;;;;;10.07;3.25;;;11.20;99.90;;;;;;5055051;28;20384;-78
2023/03/22 11:06:35;;;;;;;9.32;2.80;;;11.20;99.90;;;;;;5056247;28;20097;-78
2023/03/22 11:09:15;;;;;;;8.65;3.20;;;12.40;99.90;;;;;;5057464;28;20040;-79
2023/03/22 11:11:52;;;;;;;9.73;3.05;;;11.10;99.90;;;;;;5049541;28;20044;-79
2023/03/22 11:14:27;;;;;;;7.63;2.95;;;11.10;99.90;;;;;;5072951;28;20047;-79
2023/03/22 11:16:58;;;;;;;9.75;3.10;;;11.00;99.90;;;;;;5072182;28;20044;-79
2023/03/22 11:19:36;;;;;;;7.75;2.88;;;11.00;99.90;;;;;;5100830;28;20028;-79
2023/03/22 11:22:06;;;;;;;11.50;3.13;;;11.00;99.90;;;;;;5088343;28;20122;-78
2023/03/22 11:24:34;;;;;;;8.93;3.15;;;10.90;99.90;;;;;;5084143;28;20047;-78
2023/03/22 11:27:06;;;;;;;13.07;3.50;;;10.90;99.90;;;;;;5101948;28;20047;-78
2023/03/22 11:29:50;;;;;;;12.27;3.83;;;10.90;99.90;;;;;;5089352;28;20050;-78
2023/03/22 11:32:34;;;;;;;6.88;2.90;;;10.90;99.90;;;;;;5096735;28;20442;-78
2023/03/22 11:35:28;;;;;;;7.97;3.33;;;10.90;99.90;;;;;;5066958;28;20044;-78
2023/03/22 11:37:55;;;;;;;13.20;3.40;;;11.40;99.90;;;;;;5084287;28;20028;-78
2023/03/22 11:40:25;;;;;;;10.40;4.00;;;10.80;99.90;;;;;;5073202;28;20032;-78
2023/03/22 11:43:00;;;;;;;9.10;3.20;;;11.10;99.90;;;;;;5099566;28;20032;-78
2023/03/22 11:45:31;;;;;;;13.70;3.95;;;10.90;99.90;;;;;;5068372;28;20044;-79
2023/03/22 11:48:14;;;;;;;11.18;3.88;;;10.80;99.90;;;;;;5114033;28;20118;-78
2023/03/22 11:50:47;;;;;;;9.65;3.25;;;10.90;99.90;;;;;;5068718;28;20040;-79
2023/03/22 11:53:20;;;;;;;11.95;4.40;;;10.80;99.90;;;;;;5093699;28;20089;-78
2023/03/22 11:55:47;;;;;;;;;;;10.90;99.90;;;;;;5072372;28;20051;-78
2023/03/22 11:58:42;;;;;;;9.07;3.88;;;11.00;99.90;;;;;;5072572;28;19923;-78
2023/03/22 12:01:20;;;;;;;10.93;4.07;;;10.90;99.90;;;;;;5051044;28;20104;-77
2023/03/22 12:03:53;;;;;;;9.02;4.05;;;11.00;99.90;;;;;;5065626;28;20035;-78
2023/03/22 12:06:24;;;;;;;10.32;4.35;;;10.80;99.90;;;;;;5070262;28;20048;-78
2023/03/22 12:08:58;;;;;;;10.10;4.10;;;11.50;99.90;;;;;;5084023;28;20036;-77
2023/03/22 12:11:31;;;;;;;8.50;4.15;;;10.90;99.90;;;;;;5061021;28;20040;-77
2023/03/22 12:14:02;;;;;;;11.85;3.92;;;11.00;99.90;;;;;;5064157;28;20563;-77
2023/03/22 12:16:43;;;;;;;12.32;4.60;;;10.90;99.90;;;;;;5085379;28;20044;-77
2023/03/22 12:19:43;;;;;;;11.50;4.47;;;10.90;99.90;;;;;;5064026;28;20373;-77
2023/03/22 12:22:18;;;;;;;9.10;4.55;;;10.90;99.90;;;;;;5074136;28;20089;-77
2023/03/22 12:24:44;;;;;;;10.73;3.72;;;10.90;99.90;;;;;;5057255;28;20480;-78
2023/03/22 12:27:29;;;;;;;9.73;4.20;;;10.90;99.90;;;;;;5095287;28;20040;-78
2023/03/22 12:30:12;;;;;;;12.23;4.30;;;11.70;99.90;;;;;;5084763;28;20040;-78
2023/03/22 12:32:48;;;;;;;11.65;4.20;;;11.00;99.90;;;;;;5059417;28;20036;-79
2023/03/22 12:35:21;;;;;;;7.32;3.97;;;10.90;99.90;;;;;;5075926;28;20036;-78
2023/03/22 12:37:53;;;;;;;11.85;4.10;;;11.80;99.90;;;;;;5075309;28;20133;-79
2023/03/22 12:40:32;;;;;;;10.25;3.95;;;10.90;99.90;;;;;;5079174;28;20072;-78
2023/03/22 12:43:23;;;;;;;9.23;3.72;;;10.70;99.90;;;;;;5089093;28;20034;-78
2023/03/22 12:45:54;;;;;;;12.13;3.65;;;10.90;99.90;;;;;;5093210;28;20039;-78
2023/03/22 12:48:54;;;;;;;8.20;3.92;;;11.50;99.90;;;;;;5072389;28;20122;-77
2023/03/22 12:51:20;;;;;;;8.60;3.75;;;10.90;99.90;;;;;;5076995;28;20068;-78
2023/03/22 12:53:55;;;;;;;10.68;4.25;;;10.90;99.90;;;;;;5075103;28;20561;-78
2023/03/22 12:56:25;;;;;;;10.60;4.05;;;10.90;99.90;;;;;;5075561;28;20062;-77
2023/03/22 12:58:56;;;;;;;8.93;4.05;;;10.90;99.90;;;;;;5089140;28;20059;-78